sensor_id;sensor_type;location;lat;lon;timestamp;P1;durP1;ratioP1;P2;durP2;ratioP2
35969;SDS011;22448;51.298;6.430;2023-09-19T00:00:43;17.95;;;3.00;;
35969;SDS011;22448;51.298;6.430;2023-09-19T00:03:10;13.82;;;2.90;;
35969;SDS011;22448;51.298;6.430;2023-09-19T00:05:39;19.45;;;3.15;;
35969;SDS011;22448;51.298;6.430;2023-09-19T00:08:06;22.13;;;3.53;;
35969;SDS011;22448;51.298;6.430;2023-09-19T00:10:33;16.88;;;3.28;;
35969;SDS011;22448;51.298;6.430;2023-09-19T00:13:03;16.05;;;3.10;;
35969;SDS011;22448;51.298;6.430;2023-09-19T00:15:38;17.83;;;3.22;;
35969;SDS011;22448;51.298;6.430;2023-09-19T00:18:07;12.88;;;3.42;;
35969;SDS011;22448;51.298;6.430;2023-09-19T00:20:36;17.40;;;3.40;;
35969;SDS011;22448;51.298;6.430;2023-09-19T00:23:05;14.77;;;3.00;;
35969;SDS011;22448;51.298;6.430;2023-09-19T00:25:36;18.17;;;3.67;;
35969;SDS011;22448;51.298;6.430;2023-09-19T00:28:04;21.75;;;3.28;;
35969;SDS011;22448;51.298;6.430;2023-09-19T00:30:33;21.95;;;3.40;;
35969;SDS011;22448;51.298;6.430;2023-09-19T00:33:01;17.95;;;3.47;;
35969;SDS011;22448;51.298;6.430;2023-09-19T00:35:33;14.40;;;3.28;;
35969;SDS011;22448;51.298;6.430;2023-09-19T00:38:00;24.42;;;4.15;;
35969;SDS011;22448;51.298;6.430;2023-09-19T00:40:27;9.35;;;3.13;;
35969;SDS011;22448;51.298;6.430;2023-09-19T00:42:56;16.60;;;3.58;;
35969;SDS011;22448;51.298;6.430;2023-09-19T00:45:27;20.75;;;3.42;;
35969;SDS011;22448;51.298;6.430;2023-09-19T00:47:57;16.92;;;3.05;;
35969;SDS011;22448;51.298;6.430;2023-09-19T00:50:30;19.27;;;3.63;;
35969;SDS011;22448;51.298;6.430;2023-09-19T00:52:58;23.80;;;4.28;;
35969;SDS011;22448;51.298;6.430;2023-09-19T00:55:26;20.92;;;3.70;;
35969;SDS011;22448;51.298;6.430;2023-09-19T00:57:56;14.88;;;3.10;;
35969;SDS011;22448;51.298;6.430;2023-09-19T01:00:23;17.75;;;3.30;;
35969;SDS011;22448;51.298;6.430;2023-09-19T01:02:51;18.27;;;3.28;;
35969;SDS011;22448;51.298;6.430;2023-09-19T01:05:18;28.02;;;4.05;;
35969;SDS011;22448;51.298;6.430;2023-09-19T01:07:46;16.30;;;3.75;;
35969;SDS011;22448;51.298;6.430;2023-09-19T01:10:15;20.55;;;3.53;;
35969;SDS011;22448;51.298;6.430;2023-09-19T01:12:46;16.90;;;3.50;;
35969;SDS011;22448;51.298;6.430;2023-09-19T01:15:47;20.08;;;3.55;;
35969;SDS011;22448;51.298;6.430;2023-09-19T01:18:27;25.67;;;4.18;;
35969;SDS011;22448;51.298;6.430;2023-09-19T01:21:11;15.23;;;3.28;;
35969;SDS011;22448;51.298;6.430;2023-09-19T01:27:20;19.52;;;3.08;;
35969;SDS011;22448;51.298;6.430;2023-09-19T01:30:17;17.58;;;3.45;;
35969;SDS011;22448;51.298;6.430;2023-09-19T01:32:50;17.27;;;3.10;;
35969;SDS011;22448;51.298;6.430;2023-09-19T01:35:18;17.85;;;3.28;;
35969;SDS011;22448;51.298;6.430;2023-09-19T01:37:45;24.83;;;3.60;;
35969;SDS011;22448;51.298;6.430;2023-09-19T01:40:13;20.23;;;3.88;;
35969;SDS011;22448;51.298;6.430;2023-09-19T01:42:45;20.85;;;3.67;;
35969;SDS011;22448;51.298;6.430;2023-09-19T01:45:46;17.60;;;3.75;;
35969;SDS011;22448;51.298;6.430;2023-09-19T01:48:41;19.35;;;3.35;;
35969;SDS011;22448;51.298;6.430;2023-09-19T01:51:14;16.70;;;3.92;;
35969;SDS011;22448;51.298;6.430;2023-09-19T01:53:58;19.33;;;3.55;;
35969;SDS011;22448;51.298;6.430;2023-09-19T01:56:42;22.00;;;3.72;;
35969;SDS011;22448;51.298;6.430;2023-09-19T02:01:44;16.52;;;3.17;;
35969;SDS011;22448;51.298;6.430;2023-09-19T02:04:13;21.73;;;3.38;;
35969;SDS011;22448;51.298;6.430;2023-09-19T02:06:41;21.17;;;3.42;;
35969;SDS011;22448;51.298;6.430;2023-09-19T02:09:08;17.48;;;3.83;;
35969;SDS011;22448;51.298;6.430;2023-09-19T02:11:35;25.35;;;3.53;;
35969;SDS011;22448;51.298;6.430;2023-09-19T02:14:03;13.70;;;3.25;;
35969;SDS011;22448;51.298;6.430;2023-09-19T02:16:35;20.90;;;4.10;;
35969;SDS011;22448;51.298;6.430;2023-09-19T02:19:02;21.10;;;3.13;;
35969;SDS011;22448;51.298;6.430;2023-09-19T02:21:33;14.90;;;3.03;;
35969;SDS011;22448;51.298;6.430;2023-09-19T02:24:00;17.52;;;3.33;;
35969;SDS011;22448;51.298;6.430;2023-09-19T02:26:27;16.98;;;3.13;;
35969;SDS011;22448;51.298;6.430;2023-09-19T02:28:54;16.63;;;3.47;;
35969;SDS011;22448;51.298;6.430;2023-09-19T02:31:21;20.13;;;3.35;;
35969;SDS011;22448;51.298;6.430;2023-09-19T02:33:49;21.58;;;3.80;;
35969;SDS011;22448;51.298;6.430;2023-09-19T02:36:16;14.13;;;2.97;;
35969;SDS011;22448;51.298;6.430;2023-09-19T02:38:44;12.52;;;2.85;;
35969;SDS011;22448;51.298;6.430;2023-09-19T02:41:11;18.40;;;4.20;;
35969;SDS011;22448;51.298;6.430;2023-09-19T02:43:38;15.73;;;3.05;;
35969;SDS011;22448;51.298;6.430;2023-09-19T02:46:06;15.63;;;2.53;;
35969;SDS011;22448;51.298;6.430;2023-09-19T02:48:33;15.13;;;3.58;;
35969;SDS011;22448;51.298;6.430;2023-09-19T02:51:02;23.73;;;3.28;;
35969;SDS011;22448;51.298;6.430;2023-09-19T02:53:31;20.83;;;3.42;;
35969;SDS011;22448;51.298;6.430;2023-09-19T02:55:58;24.27;;;3.65;;
35969;SDS011;22448;51.298;6.430;2023-09-19T02:58:25;18.38;;;3.63;;
35969;SDS011;22448;51.298;6.430;2023-09-19T03:00:54;14.57;;;3.50;;
35969;SDS011;22448;51.298;6.430;2023-09-19T03:03:23;16.42;;;3.47;;
35969;SDS011;22448;51.298;6.430;2023-09-19T03:05:50;23.10;;;3.40;;
35969;SDS011;22448;51.298;6.430;2023-09-19T03:08:21;18.65;;;3.67;;
35969;SDS011;22448;51.298;6.430;2023-09-19T03:10:48;18.70;;;3.33;;
35969;SDS011;22448;51.298;6.430;2023-09-19T03:13:16;18.27;;;3.30;;
35969;SDS011;22448;51.298;6.430;2023-09-19T03:15:43;19.83;;;3.63;;
35969;SDS011;22448;51.298;6.430;2023-09-19T03:18:14;14.75;;;2.85;;
35969;SDS011;22448;51.298;6.430;2023-09-19T03:20:41;16.67;;;3.88;;
35969;SDS011;22448;51.298;6.430;2023-09-19T03:23:08;16.77;;;2.97;;
35969;SDS011;22448;51.298;6.430;2023-09-19T03:25:36;20.75;;;3.53;;
35969;SDS011;22448;51.298;6.430;2023-09-19T03:28:03;15.90;;;3.25;;
35969;SDS011;22448;51.298;6.430;2023-09-19T03:30:32;16.15;;;3.40;;
35969;SDS011;22448;51.298;6.430;2023-09-19T03:33:02;18.40;;;3.50;;
35969;SDS011;22448;51.298;6.430;2023-09-19T03:35:32;20.23;;;3.20;;
35969;SDS011;22448;51.298;6.430;2023-09-19T03:38:00;16.13;;;2.95;;
35969;SDS011;22448;51.298;6.430;2023-09-19T03:40:28;11.73;;;3.15;;
35969;SDS011;22448;51.298;6.430;2023-09-19T03:42:54;17.35;;;3.20;;
35969;SDS011;22448;51.298;6.430;2023-09-19T03:45:21;11.18;;;3.22;;
35969;SDS011;22448;51.298;6.430;2023-09-19T03:47:51;20.52;;;3.70;;
35969;SDS011;22448;51.298;6.430;2023-09-19T03:50:20;13.23;;;3.13;;
35969;SDS011;22448;51.298;6.430;2023-09-19T03:52:48;16.35;;;3.20;;
35969;SDS011;22448;51.298;6.430;2023-09-19T03:55:16;19.08;;;3.75;;
35969;SDS011;22448;51.298;6.430;2023-09-19T03:57:47;20.55;;;3.72;;
35969;SDS011;22448;51.298;6.430;2023-09-19T04:00:16;20.52;;;4.28;;
35969;SDS011;22448;51.298;6.430;2023-09-19T04:02:48;18.60;;;3.85;;
35969;SDS011;22448;51.298;6.430;2023-09-19T04:05:15;17.88;;;3.88;;
35969;SDS011;22448;51.298;6.430;2023-09-19T04:07:43;19.92;;;3.60;;
35969;SDS011;22448;51.298;6.430;2023-09-19T04:10:10;13.50;;;3.30;;
35969;SDS011;22448;51.298;6.430;2023-09-19T04:12:50;20.33;;;3.03;;
35969;SDS011;22448;51.298;6.430;2023-09-19T04:15:21;11.90;;;3.05;;
35969;SDS011;22448;51.298;6.430;2023-09-19T04:17:51;19.35;;;3.40;;
35969;SDS011;22448;51.298;6.430;2023-09-19T04:20:19;22.48;;;3.25;;
35969;SDS011;22448;51.298;6.430;2023-09-19T04:22:46;19.13;;;3.70;;
35969;SDS011;22448;51.298;6.430;2023-09-19T04:25:14;18.80;;;3.28;;
35969;SDS011;22448;51.298;6.430;2023-09-19T04:27:41;12.27;;;2.80;;
35969;SDS011;22448;51.298;6.430;2023-09-19T04:30:08;15.93;;;2.90;;
35969;SDS011;22448;51.298;6.430;2023-09-19T04:32:38;18.60;;;3.65;;
35969;SDS011;22448;51.298;6.430;2023-09-19T04:35:09;14.75;;;3.25;;
35969;SDS011;22448;51.298;6.430;2023-09-19T04:37:38;13.32;;;3.30;;
35969;SDS011;22448;51.298;6.430;2023-09-19T04:40:07;19.80;;;3.92;;
35969;SDS011;22448;51.298;6.430;2023-09-19T04:42:42;17.48;;;3.40;;
35969;SDS011;22448;51.298;6.430;2023-09-19T04:45:10;22.13;;;3.65;;
35969;SDS011;22448;51.298;6.430;2023-09-19T04:47:37;18.65;;;3.58;;
35969;SDS011;22448;51.298;6.430;2023-09-19T04:50:06;16.25;;;3.15;;
35969;SDS011;22448;51.298;6.430;2023-09-19T04:52:34;16.60;;;3.25;;
35969;SDS011;22448;51.298;6.430;2023-09-19T04:55:01;23.05;;;4.07;;
35969;SDS011;22448;51.298;6.430;2023-09-19T04:57:29;20.77;;;3.55;;
35969;SDS011;22448;51.298;6.430;2023-09-19T04:59:56;15.60;;;3.45;;
35969;SDS011;22448;51.298;6.430;2023-09-19T05:02:23;18.98;;;3.35;;
35969;SDS011;22448;51.298;6.430;2023-09-19T05:04:51;18.27;;;3.20;;
35969;SDS011;22448;51.298;6.430;2023-09-19T05:07:20;17.33;;;3.17;;
35969;SDS011;22448;51.298;6.430;2023-09-19T05:09:50;16.58;;;3.45;;
35969;SDS011;22448;51.298;6.430;2023-09-19T05:12:17;19.08;;;4.35;;
35969;SDS011;22448;51.298;6.430;2023-09-19T05:14:46;21.75;;;3.95;;
35969;SDS011;22448;51.298;6.430;2023-09-19T05:17:13;24.10;;;4.07;;
35969;SDS011;22448;51.298;6.430;2023-09-19T05:19:43;18.35;;;3.78;;
35969;SDS011;22448;51.298;6.430;2023-09-19T05:22:10;18.67;;;3.67;;
35969;SDS011;22448;51.298;6.430;2023-09-19T05:24:39;25.38;;;3.78;;
35969;SDS011;22448;51.298;6.430;2023-09-19T05:27:06;22.02;;;3.53;;
35969;SDS011;22448;51.298;6.430;2023-09-19T05:29:34;22.23;;;3.60;;
35969;SDS011;22448;51.298;6.430;2023-09-19T05:32:01;21.75;;;4.47;;
35969;SDS011;22448;51.298;6.430;2023-09-19T05:34:30;25.30;;;4.15;;
35969;SDS011;22448;51.298;6.430;2023-09-19T05:36:57;17.63;;;3.50;;
35969;SDS011;22448;51.298;6.430;2023-09-19T05:39:24;20.27;;;3.90;;
35969;SDS011;22448;51.298;6.430;2023-09-19T05:41:51;19.88;;;3.63;;
35969;SDS011;22448;51.298;6.430;2023-09-19T05:44:18;17.02;;;3.90;;
35969;SDS011;22448;51.298;6.430;2023-09-19T05:46:46;20.33;;;3.95;;
35969;SDS011;22448;51.298;6.430;2023-09-19T05:49:14;27.00;;;4.00;;
35969;SDS011;22448;51.298;6.430;2023-09-19T05:51:42;15.30;;;3.58;;
35969;SDS011;22448;51.298;6.430;2023-09-19T05:54:09;25.80;;;4.30;;
35969;SDS011;22448;51.298;6.430;2023-09-19T05:56:37;16.38;;;3.15;;
35969;SDS011;22448;51.298;6.430;2023-09-19T05:59:04;18.65;;;3.80;;
35969;SDS011;22448;51.298;6.430;2023-09-19T06:01:31;16.25;;;3.72;;
35969;SDS011;22448;51.298;6.430;2023-09-19T06:04:00;15.55;;;3.75;;
35969;SDS011;22448;51.298;6.430;2023-09-19T06:06:27;16.98;;;3.35;;
35969;SDS011;22448;51.298;6.430;2023-09-19T06:08:54;23.88;;;4.40;;
35969;SDS011;22448;51.298;6.430;2023-09-19T06:11:21;23.25;;;3.53;;
35969;SDS011;22448;51.298;6.430;2023-09-19T06:13:51;17.08;;;3.53;;
35969;SDS011;22448;51.298;6.430;2023-09-19T06:16:19;20.65;;;3.28;;
35969;SDS011;22448;51.298;6.430;2023-09-19T06:18:47;19.90;;;3.70;;
35969;SDS011;22448;51.298;6.430;2023-09-19T06:21:16;22.13;;;4.25;;
35969;SDS011;22448;51.298;6.430;2023-09-19T06:23:43;28.15;;;3.30;;
35969;SDS011;22448;51.298;6.430;2023-09-19T06:26:10;23.83;;;4.32;;
35969;SDS011;22448;51.298;6.430;2023-09-19T06:28:39;18.38;;;3.60;;
35969;SDS011;22448;51.298;6.430;2023-09-19T06:31:07;22.70;;;3.53;;
35969;SDS011;22448;51.298;6.430;2023-09-19T06:33:37;23.55;;;3.42;;
35969;SDS011;22448;51.298;6.430;2023-09-19T06:36:07;17.10;;;3.20;;
35969;SDS011;22448;51.298;6.430;2023-09-19T06:38:34;20.92;;;3.85;;
35969;SDS011;22448;51.298;6.430;2023-09-19T06:41:02;27.05;;;3.88;;
35969;SDS011;22448;51.298;6.430;2023-09-19T06:43:33;15.95;;;3.00;;
35969;SDS011;22448;51.298;6.430;2023-09-19T06:46:01;17.30;;;3.38;;
35969;SDS011;22448;51.298;6.430;2023-09-19T06:48:29;19.30;;;2.97;;
35969;SDS011;22448;51.298;6.430;2023-09-19T06:50:56;23.33;;;3.53;;
35969;SDS011;22448;51.298;6.430;2023-09-19T06:53:25;22.00;;;3.75;;
35969;SDS011;22448;51.298;6.430;2023-09-19T06:55:52;19.70;;;3.33;;
35969;SDS011;22448;51.298;6.430;2023-09-19T06:58:19;15.95;;;3.40;;
35969;SDS011;22448;51.298;6.430;2023-09-19T07:00:47;25.05;;;3.30;;
35969;SDS011;22448;51.298;6.430;2023-09-19T07:03:14;17.88;;;3.67;;
35969;SDS011;22448;51.298;6.430;2023-09-19T07:05:42;15.57;;;3.75;;
35969;SDS011;22448;51.298;6.430;2023-09-19T07:08:10;16.92;;;3.33;;
35969;SDS011;22448;51.298;6.430;2023-09-19T07:10:39;19.02;;;3.40;;
35969;SDS011;22448;51.298;6.430;2023-09-19T07:13:16;16.10;;;3.08;;
35969;SDS011;22448;51.298;6.430;2023-09-19T07:15:43;17.83;;;3.65;;
35969;SDS011;22448;51.298;6.430;2023-09-19T07:18:14;23.88;;;4.38;;
35969;SDS011;22448;51.298;6.430;2023-09-19T07:20:44;13.63;;;3.47;;
35969;SDS011;22448;51.298;6.430;2023-09-19T07:23:18;20.27;;;4.22;;
35969;SDS011;22448;51.298;6.430;2023-09-19T07:25:48;16.60;;;3.42;;
35969;SDS011;22448;51.298;6.430;2023-09-19T07:28:16;16.17;;;3.90;;
35969;SDS011;22448;51.298;6.430;2023-09-19T07:30:43;14.48;;;3.10;;
35969;SDS011;22448;51.298;6.430;2023-09-19T07:33:10;21.17;;;4.05;;
35969;SDS011;22448;51.298;6.430;2023-09-19T07:35:38;29.88;;;4.30;;
35969;SDS011;22448;51.298;6.430;2023-09-19T07:38:08;20.77;;;3.97;;
35969;SDS011;22448;51.298;6.430;2023-09-19T07:40:38;17.42;;;3.22;;
35969;SDS011;22448;51.298;6.430;2023-09-19T07:43:06;18.98;;;3.25;;
35969;SDS011;22448;51.298;6.430;2023-09-19T07:45:33;20.65;;;3.78;;
35969;SDS011;22448;51.298;6.430;2023-09-19T07:48:00;31.27;;;4.03;;
35969;SDS011;22448;51.298;6.430;2023-09-19T07:50:32;35.40;;;4.47;;
35969;SDS011;22448;51.298;6.430;2023-09-19T07:53:03;18.98;;;3.88;;
35969;SDS011;22448;51.298;6.430;2023-09-19T07:55:31;19.80;;;3.45;;
35969;SDS011;22448;51.298;6.430;2023-09-19T07:58:00;18.45;;;2.92;;
35969;SDS011;22448;51.298;6.430;2023-09-19T08:00:30;20.67;;;3.38;;
35969;SDS011;22448;51.298;6.430;2023-09-19T08:02:59;17.38;;;3.30;;
35969;SDS011;22448;51.298;6.430;2023-09-19T08:05:34;17.40;;;2.97;;
35969;SDS011;22448;51.298;6.430;2023-09-19T08:08:01;18.27;;;2.90;;
35969;SDS011;22448;51.298;6.430;2023-09-19T08:10:28;13.07;;;2.88;;
35969;SDS011;22448;51.298;6.430;2023-09-19T08:13:02;18.98;;;3.80;;
35969;SDS011;22448;51.298;6.430;2023-09-19T08:15:29;21.40;;;3.78;;
35969;SDS011;22448;51.298;6.430;2023-09-19T08:17:56;16.98;;;3.47;;
35969;SDS011;22448;51.298;6.430;2023-09-19T08:20:23;22.55;;;3.70;;
35969;SDS011;22448;51.298;6.430;2023-09-19T08:22:51;22.80;;;3.92;;
35969;SDS011;22448;51.298;6.430;2023-09-19T08:25:21;18.65;;;3.72;;
35969;SDS011;22448;51.298;6.430;2023-09-19T08:27:49;18.25;;;3.47;;
35969;SDS011;22448;51.298;6.430;2023-09-19T08:30:21;22.15;;;3.72;;
35969;SDS011;22448;51.298;6.430;2023-09-19T08:32:59;23.63;;;3.42;;
35969;SDS011;22448;51.298;6.430;2023-09-19T08:35:27;22.50;;;3.30;;
35969;SDS011;22448;51.298;6.430;2023-09-19T08:37:55;20.80;;;3.70;;
35969;SDS011;22448;51.298;6.430;2023-09-19T08:40:23;17.98;;;3.65;;
35969;SDS011;22448;51.298;6.430;2023-09-19T08:42:52;14.07;;;2.92;;
35969;SDS011;22448;51.298;6.430;2023-09-19T08:45:21;22.25;;;3.70;;
35969;SDS011;22448;51.298;6.430;2023-09-19T08:47:52;17.95;;;3.40;;
35969;SDS011;22448;51.298;6.430;2023-09-19T08:50:27;16.55;;;3.53;;
35969;SDS011;22448;51.298;6.430;2023-09-19T08:52:56;19.80;;;3.72;;
35969;SDS011;22448;51.298;6.430;2023-09-19T08:55:28;20.75;;;3.95;;
35969;SDS011;22448;51.298;6.430;2023-09-19T08:58:00;16.02;;;2.97;;
35969;SDS011;22448;51.298;6.430;2023-09-19T09:00:30;15.15;;;3.38;;
35969;SDS011;22448;51.298;6.430;2023-09-19T09:02:58;17.95;;;3.65;;
35969;SDS011;22448;51.298;6.430;2023-09-19T09:05:27;18.25;;;3.20;;
35969;SDS011;22448;51.298;6.430;2023-09-19T09:07:54;19.88;;;3.60;;
35969;SDS011;22448;51.298;6.430;2023-09-19T09:10:23;13.88;;;4.38;;
35969;SDS011;22448;51.298;6.430;2023-09-19T09:12:53;17.92;;;4.05;;
35969;SDS011;22448;51.298;6.430;2023-09-19T09:15:22;20.83;;;3.45;;
35969;SDS011;22448;51.298;6.430;2023-09-19T09:17:50;17.83;;;3.15;;
35969;SDS011;22448;51.298;6.430;2023-09-19T09:20:19;22.83;;;3.63;;
35969;SDS011;22448;51.298;6.430;2023-09-19T09:22:50;21.17;;;3.45;;
35969;SDS011;22448;51.298;6.430;2023-09-19T09:25:22;20.70;;;4.15;;
35969;SDS011;22448;51.298;6.430;2023-09-19T09:27:58;18.42;;;4.20;;
35969;SDS011;22448;51.298;6.430;2023-09-19T09:30:34;18.92;;;3.08;;
35969;SDS011;22448;51.298;6.430;2023-09-19T09:33:10;23.20;;;3.53;;
35969;SDS011;22448;51.298;6.430;2023-09-19T09:35:52;21.50;;;3.90;;
35969;SDS011;22448;51.298;6.430;2023-09-19T09:38:23;18.10;;;3.33;;
35969;SDS011;22448;51.298;6.430;2023-09-19T09:40:55;10.85;;;2.70;;
35969;SDS011;22448;51.298;6.430;2023-09-19T09:43:34;15.13;;;3.38;;
35969;SDS011;22448;51.298;6.430;2023-09-19T09:46:13;9.85;;;2.88;;
35969;SDS011;22448;51.298;6.430;2023-09-19T09:48:55;20.73;;;3.47;;
35969;SDS011;22448;51.298;6.430;2023-09-19T09:51:47;18.58;;;2.85;;
35969;SDS011;22448;51.298;6.430;2023-09-19T09:54:24;18.08;;;3.35;;
35969;SDS011;22448;51.298;6.430;2023-09-19T09:57:01;15.90;;;3.28;;
35969;SDS011;22448;51.298;6.430;2023-09-19T09:59:44;19.98;;;3.67;;
35969;SDS011;22448;51.298;6.430;2023-09-19T10:02:38;17.05;;;3.10;;
35969;SDS011;22448;51.298;6.430;2023-09-19T10:05:11;15.85;;;2.92;;
35969;SDS011;22448;51.298;6.430;2023-09-19T10:07:54;15.38;;;2.78;;
35969;SDS011;22448;51.298;6.430;2023-09-19T10:10:31;16.50;;;3.40;;
35969;SDS011;22448;51.298;6.430;2023-09-19T10:13:25;14.52;;;3.38;;
35969;SDS011;22448;51.298;6.430;2023-09-19T10:15:57;17.47;;;3.37;;
35969;SDS011;22448;51.298;6.430;2023-09-19T10:18:31;17.13;;;3.22;;
35969;SDS011;22448;51.298;6.430;2023-09-19T10:21:03;18.63;;;2.75;;
35969;SDS011;22448;51.298;6.430;2023-09-19T10:23:31;14.45;;;2.72;;
35969;SDS011;22448;51.298;6.430;2023-09-19T10:26:01;12.90;;;3.17;;
35969;SDS011;22448;51.298;6.430;2023-09-19T10:28:28;15.32;;;3.00;;
35969;SDS011;22448;51.298;6.430;2023-09-19T10:30:58;9.02;;;2.90;;
35969;SDS011;22448;51.298;6.430;2023-09-19T10:33:27;13.65;;;3.13;;
35969;SDS011;22448;51.298;6.430;2023-09-19T10:36:03;14.05;;;3.00;;
35969;SDS011;22448;51.298;6.430;2023-09-19T10:38:32;12.05;;;2.35;;
35969;SDS011;22448;51.298;6.430;2023-09-19T10:41:02;18.90;;;3.00;;
35969;SDS011;22448;51.298;6.430;2023-09-19T10:43:32;15.73;;;3.15;;
35969;SDS011;22448;51.298;6.430;2023-09-19T10:46:03;14.90;;;3.10;;
35969;SDS011;22448;51.298;6.430;2023-09-19T10:48:34;16.60;;;3.40;;
35969;SDS011;22448;51.298;6.430;2023-09-19T10:51:06;13.60;;;3.15;;
35969;SDS011;22448;51.298;6.430;2023-09-19T10:53:48;12.70;;;2.58;;
35969;SDS011;22448;51.298;6.430;2023-09-19T10:56:29;13.43;;;3.10;;
35969;SDS011;22448;51.298;6.430;2023-09-19T10:59:05;13.20;;;3.22;;
35969;SDS011;22448;51.298;6.430;2023-09-19T11:04:44;14.85;;;2.95;;
35969;SDS011;22448;51.298;6.430;2023-09-19T11:07:14;16.70;;;2.80;;
35969;SDS011;22448;51.298;6.430;2023-09-19T11:10:03;12.10;;;2.92;;
35969;SDS011;22448;51.298;6.430;2023-09-19T11:15:07;19.17;;;3.42;;
35969;SDS011;22448;51.298;6.430;2023-09-19T11:17:40;16.77;;;2.88;;
35969;SDS011;22448;51.298;6.430;2023-09-19T11:30:46;13.02;;;3.05;;
35969;SDS011;22448;51.298;6.430;2023-09-19T11:43:49;16.13;;;3.10;;
35969;SDS011;22448;51.298;6.430;2023-09-19T11:46:25;12.63;;;3.15;;
35969;SDS011;22448;51.298;6.430;2023-09-19T11:48:55;19.65;;;3.03;;
35969;SDS011;22448;51.298;6.430;2023-09-19T11:51:42;10.63;;;2.60;;
35969;SDS011;22448;51.298;6.430;2023-09-19T11:54:14;18.17;;;2.92;;
35969;SDS011;22448;51.298;6.430;2023-09-19T11:56:58;10.25;;;2.60;;
35969;SDS011;22448;51.298;6.430;2023-09-19T11:59:27;15.13;;;3.38;;
35969;SDS011;22448;51.298;6.430;2023-09-19T12:07:02;14.50;;;3.00;;
35969;SDS011;22448;51.298;6.430;2023-09-19T12:09:50;8.27;;;2.35;;
35969;SDS011;22448;51.298;6.430;2023-09-19T12:12:30;9.93;;;2.03;;
35969;SDS011;22448;51.298;6.430;2023-09-19T12:14:59;15.25;;;3.00;;
35969;SDS011;22448;51.298;6.430;2023-09-19T12:17:36;12.63;;;2.63;;
35969;SDS011;22448;51.298;6.430;2023-09-19T12:20:09;10.30;;;2.67;;
35969;SDS011;22448;51.298;6.430;2023-09-19T12:22:40;10.50;;;2.63;;
35969;SDS011;22448;51.298;6.430;2023-09-19T12:25:10;12.90;;;2.53;;
35969;SDS011;22448;51.298;6.430;2023-09-19T12:27:44;12.38;;;2.60;;
35969;SDS011;22448;51.298;6.430;2023-09-19T12:30:30;8.23;;;2.00;;
35969;SDS011;22448;51.298;6.430;2023-09-19T12:33:02;12.18;;;2.55;;
35969;SDS011;22448;51.298;6.430;2023-09-19T12:35:30;12.90;;;2.92;;
35969;SDS011;22448;51.298;6.430;2023-09-19T12:38:02;8.60;;;1.98;;
35969;SDS011;22448;51.298;6.430;2023-09-19T12:40:30;7.63;;;2.35;;
35969;SDS011;22448;51.298;6.430;2023-09-19T12:43:00;14.57;;;2.97;;
35969;SDS011;22448;51.298;6.430;2023-09-19T12:45:31;12.15;;;2.35;;
35969;SDS011;22448;51.298;6.430;2023-09-19T12:51:01;12.02;;;2.60;;
35969;SDS011;22448;51.298;6.430;2023-09-19T12:53:34;9.63;;;1.92;;
35969;SDS011;22448;51.298;6.430;2023-09-19T12:56:12;7.90;;;1.80;;
35969;SDS011;22448;51.298;6.430;2023-09-19T12:58:53;9.35;;;1.90;;
35969;SDS011;22448;51.298;6.430;2023-09-19T13:01:23;8.93;;;1.85;;
35969;SDS011;22448;51.298;6.430;2023-09-19T13:06:47;6.70;;;1.83;;
35969;SDS011;22448;51.298;6.430;2023-09-19T13:09:16;11.55;;;1.73;;
35969;SDS011;22448;51.298;6.430;2023-09-19T13:11:45;9.25;;;1.83;;
35969;SDS011;22448;51.298;6.430;2023-09-19T13:16:57;5.68;;;1.60;;
35969;SDS011;22448;51.298;6.430;2023-09-19T13:19:37;13.20;;;2.53;;
35969;SDS011;22448;51.298;6.430;2023-09-19T13:25:20;5.70;;;1.33;;
35969;SDS011;22448;51.298;6.430;2023-09-19T13:27:52;6.03;;;1.55;;
35969;SDS011;22448;51.298;6.430;2023-09-19T13:30:26;9.75;;;2.05;;
35969;SDS011;22448;51.298;6.430;2023-09-19T13:33:05;8.05;;;1.75;;
35969;SDS011;22448;51.298;6.430;2023-09-19T13:35:38;5.10;;;1.80;;
35969;SDS011;22448;51.298;6.430;2023-09-19T13:38:07;6.60;;;1.50;;
35969;SDS011;22448;51.298;6.430;2023-09-19T13:40:38;10.75;;;2.15;;
35969;SDS011;22448;51.298;6.430;2023-09-19T13:43:08;10.25;;;1.70;;
35969;SDS011;22448;51.298;6.430;2023-09-19T13:45:37;8.05;;;1.85;;
35969;SDS011;22448;51.298;6.430;2023-09-19T13:48:04;6.10;;;1.50;;
35969;SDS011;22448;51.298;6.430;2023-09-19T13:50:31;11.50;;;1.45;;
35969;SDS011;22448;51.298;6.430;2023-09-19T13:52:58;6.35;;;1.40;;
35969;SDS011;22448;51.298;6.430;2023-09-19T13:55:27;9.05;;;1.30;;
35969;SDS011;22448;51.298;6.430;2023-09-19T13:57:55;6.75;;;1.48;;
35969;SDS011;22448;51.298;6.430;2023-09-19T14:00:23;4.65;;;1.40;;
35969;SDS011;22448;51.298;6.430;2023-09-19T14:02:50;5.22;;;0.98;;
35969;SDS011;22448;51.298;6.430;2023-09-19T14:05:18;6.00;;;1.10;;
35969;SDS011;22448;51.298;6.430;2023-09-19T14:07:47;6.88;;;1.65;;
35969;SDS011;22448;51.298;6.430;2023-09-19T14:10:16;5.00;;;1.23;;
35969;SDS011;22448;51.298;6.430;2023-09-19T14:12:46;7.90;;;1.27;;
35969;SDS011;22448;51.298;6.430;2023-09-19T14:15:14;6.55;;;1.33;;
35969;SDS011;22448;51.298;6.430;2023-09-19T14:17:41;4.60;;;1.45;;
35969;SDS011;22448;51.298;6.430;2023-09-19T14:20:09;7.68;;;1.70;;
35969;SDS011;22448;51.298;6.430;2023-09-19T14:22:37;5.00;;;1.00;;
35969;SDS011;22448;51.298;6.430;2023-09-19T14:25:04;5.57;;;1.52;;
35969;SDS011;22448;51.298;6.430;2023-09-19T14:27:32;8.20;;;1.27;;
35969;SDS011;22448;51.298;6.430;2023-09-19T14:29:59;4.38;;;1.08;;
35969;SDS011;22448;51.298;6.430;2023-09-19T14:32:26;9.20;;;1.40;;
35969;SDS011;22448;51.298;6.430;2023-09-19T14:34:53;11.70;;;1.13;;
35969;SDS011;22448;51.298;6.430;2023-09-19T14:37:20;5.82;;;1.10;;
35969;SDS011;22448;51.298;6.430;2023-09-19T14:39:47;4.80;;;1.10;;
35969;SDS011;22448;51.298;6.430;2023-09-19T14:42:15;10.70;;;1.10;;
35969;SDS011;22448;51.298;6.430;2023-09-19T14:44:44;11.98;;;1.42;;
35969;SDS011;22448;51.298;6.430;2023-09-19T14:47:11;5.97;;;1.00;;
35969;SDS011;22448;51.298;6.430;2023-09-19T14:49:40;8.25;;;2.10;;
35969;SDS011;22448;51.298;6.430;2023-09-19T14:52:08;4.63;;;1.55;;
35969;SDS011;22448;51.298;6.430;2023-09-19T14:54:36;2.83;;;1.00;;
35969;SDS011;22448;51.298;6.430;2023-09-19T14:57:08;4.00;;;1.30;;
35969;SDS011;22448;51.298;6.430;2023-09-19T14:59:35;5.60;;;1.73;;
35969;SDS011;22448;51.298;6.430;2023-09-19T15:02:06;8.60;;;2.47;;
35969;SDS011;22448;51.298;6.430;2023-09-19T15:04:34;4.55;;;1.33;;
35969;SDS011;22448;51.298;6.430;2023-09-19T15:07:01;9.38;;;1.15;;
35969;SDS011;22448;51.298;6.430;2023-09-19T15:09:29;5.28;;;1.52;;
35969;SDS011;22448;51.298;6.430;2023-09-19T15:11:58;7.10;;;1.10;;
35969;SDS011;22448;51.298;6.430;2023-09-19T15:14:26;2.13;;;0.95;;
35969;SDS011;22448;51.298;6.430;2023-09-19T15:16:53;6.88;;;1.45;;
35969;SDS011;22448;51.298;6.430;2023-09-19T15:19:20;3.80;;;1.33;;
35969;SDS011;22448;51.298;6.430;2023-09-19T15:21:49;5.57;;;1.40;;
35969;SDS011;22448;51.298;6.430;2023-09-19T15:24:16;6.72;;;1.38;;
35969;SDS011;22448;51.298;6.430;2023-09-19T15:26:43;2.20;;;1.13;;
35969;SDS011;22448;51.298;6.430;2023-09-19T15:29:14;12.73;;;1.35;;
35969;SDS011;22448;51.298;6.430;2023-09-19T15:31:42;8.95;;;1.88;;
35969;SDS011;22448;51.298;6.430;2023-09-19T15:34:09;6.40;;;1.15;;
35969;SDS011;22448;51.298;6.430;2023-09-19T15:36:40;11.70;;;1.60;;
35969;SDS011;22448;51.298;6.430;2023-09-19T15:39:08;5.13;;;1.30;;
35969;SDS011;22448;51.298;6.430;2023-09-19T15:41:38;7.85;;;1.10;;
35969;SDS011;22448;51.298;6.430;2023-09-19T15:44:14;7.63;;;1.27;;